createdAt,value
2023-04-14T00:00:37.167Z,63.1
2023-04-14T00:02:20.897Z,63.1
2023-04-14T00:04:04.576Z,63.9
2023-04-14T00:05:48.268Z,64
2023-04-14T00:07:31.976Z,64
2023-04-14T00:09:15.682Z,64.4
2023-04-14T00:10:59.405Z,64.5
2023-04-14T00:12:43.094Z,64.3
2023-04-14T00:14:26.817Z,64.2
2023-04-14T00:16:10.489Z,64.2
2023-04-14T00:17:54.201Z,64.1
2023-04-14T00:19:37.933Z,64.2
2023-04-14T00:21:21.610Z,64.2
2023-04-14T00:23:05.310Z,64.2
2023-04-14T00:24:48.991Z,64.2
2023-04-14T00:26:32.698Z,64.3
2023-04-14T00:28:16.398Z,64.3
2023-04-14T00:30:00.112Z,64.1
2023-04-14T00:31:43.820Z,63.9
2023-04-14T00:33:27.513Z,63.9
2023-04-14T00:35:11.216Z,64
2023-04-14T00:36:54.916Z,64.2
2023-04-14T00:38:38.738Z,64.1
2023-04-14T00:40:22.337Z,64
2023-04-14T00:42:06.036Z,63.9
2023-04-14T00:43:49.728Z,63.9
2023-04-14T00:45:33.433Z,63.9
2023-04-14T00:47:17.122Z,64
2023-04-14T00:49:00.832Z,64
2023-04-14T00:50:44.541Z,63.9
2023-04-14T00:52:28.234Z,63.9
2023-04-14T00:54:11.948Z,64
2023-04-14T00:57:39.348Z,64
2023-04-14T00:59:23.046Z,64
2023-04-14T01:01:06.743Z,64
2023-04-14T01:02:50.453Z,64
2023-04-14T01:04:34.158Z,63.8
2023-04-14T01:06:17.849Z,63.8
2023-04-14T01:08:01.560Z,63.9
2023-04-14T01:09:45.256Z,64
2023-04-14T01:11:28.974Z,63.9
2023-04-14T01:13:12.667Z,63.6
2023-04-14T01:14:56.371Z,63.8
2023-04-14T01:16:40.102Z,63.7
2023-04-14T01:18:23.785Z,63.4
2023-04-14T01:20:07.475Z,63.2
2023-04-14T01:21:51.196Z,63.2
2023-04-14T01:23:34.881Z,63.2
2023-04-14T01:25:18.584Z,63.3
2023-04-14T01:27:02.281Z,63.3
2023-04-14T01:28:45.972Z,63.4
2023-04-14T01:30:29.682Z,63.4
2023-04-14T01:32:13.392Z,63.4
2023-04-14T01:33:57.086Z,63.5
2023-04-14T01:35:40.822Z,63.5
2023-04-14T01:37:24.503Z,63.5
2023-04-14T01:39:08.194Z,63.5
2023-04-14T01:40:51.893Z,63.5
2023-04-14T01:42:35.600Z,63.5
2023-04-14T01:44:19.306Z,63.5
2023-04-14T01:46:03.014Z,63.5
2023-04-14T01:47:46.692Z,63.5
2023-04-14T01:49:30.408Z,63.5
2023-04-14T01:51:14.156Z,63.5
2023-04-14T01:52:57.824Z,63.6
2023-04-14T01:54:41.526Z,63.5
2023-04-14T01:56:25.205Z,63.6
2023-04-14T01:58:08.911Z,63.5
2023-04-14T01:59:52.620Z,63.6
2023-04-14T02:01:36.337Z,63.6
2023-04-14T02:03:20.019Z,63.5
2023-04-14T02:05:03.726Z,63.5
2023-04-14T02:06:47.417Z,63.6
2023-04-14T02:08:31.143Z,63.6
2023-04-14T02:10:14.823Z,63.5
2023-04-14T02:11:58.524Z,63.4
2023-04-14T02:13:42.232Z,63.4
2023-04-14T02:15:25.930Z,63.4
2023-04-14T02:17:09.633Z,63.4
2023-04-14T02:18:53.342Z,63.4
2023-04-14T02:20:37.034Z,63.4
2023-04-14T02:22:20.742Z,63.4
2023-04-14T02:24:04.463Z,63.4
2023-04-14T02:25:48.137Z,63.4
2023-04-14T02:27:31.854Z,63.5
2023-04-14T02:29:15.548Z,63.5
2023-04-14T02:30:59.272Z,63.5
2023-04-14T02:32:42.964Z,63.4
2023-04-14T02:34:26.654Z,63.4
2023-04-14T02:36:10.361Z,63.4
2023-04-14T02:37:54.072Z,63.4
2023-04-14T02:39:37.814Z,63.4
2023-04-14T02:41:21.469Z,63.4
2023-04-14T02:43:05.190Z,63.4
2023-04-14T02:44:48.877Z,63.4
2023-04-14T02:46:32.590Z,63.4
2023-04-14T02:48:16.284Z,63.4
2023-04-14T02:49:59.999Z,63.4
2023-04-14T02:51:43.687Z,63.3
2023-04-14T02:53:27.395Z,63.4
2023-04-14T02:55:11.096Z,63.4
2023-04-14T02:56:54.810Z,63.4
2023-04-14T02:58:38.514Z,63.4
2023-04-14T03:00:22.210Z,63.4
2023-04-14T03:02:05.908Z,63.4
2023-04-14T03:03:49.616Z,63.3
2023-04-14T03:05:33.321Z,63.3
2023-04-14T03:07:17.012Z,63.3
2023-04-14T03:09:00.723Z,63.3
2023-04-14T03:10:44.428Z,63.2
2023-04-14T03:12:28.123Z,63.3
2023-04-14T03:14:11.833Z,63.3
2023-04-14T03:15:55.526Z,63.3
2023-04-14T03:17:39.224Z,63.3
2023-04-14T03:19:22.942Z,63.3
2023-04-14T03:21:06.656Z,63.2
2023-04-14T03:22:50.395Z,63.3
2023-04-14T03:24:34.052Z,63.3
2023-04-14T03:26:17.749Z,63.3
2023-04-14T03:28:01.451Z,63.2
2023-04-14T03:29:45.150Z,63.3
2023-04-14T03:31:28.858Z,63.2
2023-04-14T03:33:12.610Z,63.2
2023-04-14T03:34:56.263Z,63.2
2023-04-14T03:36:39.997Z,63.2
2023-04-14T03:38:23.663Z,63.2
2023-04-14T03:40:07.393Z,63.1
2023-04-14T03:41:51.066Z,63.1
2023-04-14T03:43:34.764Z,63.1
2023-04-14T03:45:18.466Z,63.2
2023-04-14T03:47:02.176Z,63.1
2023-04-14T03:48:45.877Z,63.1
2023-04-14T03:50:29.579Z,63.1
2023-04-14T03:52:13.283Z,63.1
2023-04-14T03:53:56.982Z,63.1
2023-04-14T03:55:40.837Z,63.1
2023-04-14T03:57:24.388Z,63.1
2023-04-14T03:59:08.094Z,63.1
2023-04-14T04:00:51.792Z,63.1
2023-04-14T04:02:35.500Z,63.1
2023-04-14T04:04:19.198Z,63
2023-04-14T04:06:02.904Z,63
2023-04-14T04:07:46.604Z,63
2023-04-14T04:09:30.302Z,63
2023-04-14T04:11:14.018Z,63
2023-04-14T04:12:57.709Z,63
2023-04-14T04:14:41.419Z,62.9
2023-04-14T04:18:08.812Z,62.9
2023-04-14T04:19:52.518Z,62.9
2023-04-14T04:21:36.229Z,62.9
2023-04-14T04:23:19.925Z,62.9
2023-04-14T04:25:03.625Z,62.8
2023-04-14T04:26:47.340Z,62.8
2023-04-14T04:28:31.037Z,62.8
2023-04-14T04:30:14.735Z,62.8
2023-04-14T04:31:58.436Z,62.8
2023-04-14T04:33:42.144Z,62.8
2023-04-14T04:35:25.846Z,62.7
2023-04-14T04:37:09.620Z,62.7
2023-04-14T04:38:53.245Z,62.7
2023-04-14T04:40:36.946Z,62.7
2023-04-14T04:42:20.654Z,62.7
2023-04-14T04:44:04.372Z,62.7
2023-04-14T04:45:48.057Z,62.6
2023-04-14T04:47:31.762Z,62.6
2023-04-14T04:49:15.464Z,62.5
2023-04-14T04:50:59.166Z,62.6
2023-04-14T04:52:42.871Z,62.6
2023-04-14T04:54:26.570Z,62.6
2023-04-14T04:56:10.274Z,62.5
2023-04-14T04:57:53.975Z,62.6
2023-04-14T04:59:37.678Z,62.5
2023-04-14T05:01:21.383Z,62.5
2023-04-14T05:03:05.099Z,62.5
2023-04-14T05:04:48.779Z,62.5
2023-04-14T05:06:32.493Z,62.5
2023-04-14T05:08:16.196Z,62.5
2023-04-14T05:09:59.898Z,62.5
2023-04-14T05:11:43.600Z,62.5
2023-04-14T05:13:27.294Z,62.4
2023-04-14T05:15:10.996Z,62
2023-04-14T05:16:54.706Z,61.7
2023-04-14T05:18:38.409Z,61.5
2023-04-14T05:20:22.105Z,61.3
2023-04-14T05:22:05.820Z,61.1
2023-04-14T05:23:49.510Z,61.1
2023-04-14T05:25:33.232Z,61.6
2023-04-14T05:27:16.937Z,61.5
2023-04-14T05:29:00.615Z,61.1
2023-04-14T05:30:44.333Z,61.1
2023-04-14T05:32:28.023Z,61
2023-04-14T05:34:11.728Z,61.2
2023-04-14T05:35:55.427Z,61.5
2023-04-14T05:37:39.205Z,61.1
2023-04-14T05:39:22.842Z,61
2023-04-14T05:41:06.538Z,61
2023-04-14T05:42:50.282Z,61.1
2023-04-14T05:44:33.952Z,61
2023-04-14T05:46:17.647Z,60.9
2023-04-14T05:48:01.348Z,60.9
2023-04-14T05:49:45.061Z,61
2023-04-14T05:51:28.767Z,60.8
2023-04-14T05:53:12.499Z,60.8
2023-04-14T05:54:56.276Z,60.8
2023-04-14T05:56:39.922Z,60.8
2023-04-14T05:58:23.565Z,60.8
2023-04-14T06:00:07.254Z,60.8
2023-04-14T06:01:51.035Z,60.7
2023-04-14T06:03:34.682Z,60.7
2023-04-14T06:05:18.377Z,60.7
2023-04-14T06:07:02.082Z,60.7
2023-04-14T06:08:45.880Z,60.6
2023-04-14T06:10:29.488Z,60.6
2023-04-14T06:12:13.193Z,60.6
2023-04-14T06:13:56.878Z,60.6
2023-04-14T06:15:40.629Z,60.6
2023-04-14T06:17:24.324Z,60.6
2023-04-14T06:19:08.000Z,60.6
2023-04-14T06:20:51.749Z,60.6
2023-04-14T06:22:35.410Z,60.6
2023-04-14T06:24:19.123Z,60.6
2023-04-14T06:26:02.907Z,60.5
2023-04-14T06:27:46.554Z,60.3
2023-04-14T06:29:30.261Z,60.1
2023-04-14T06:31:13.925Z,60
2023-04-14T06:32:57.726Z,60
2023-04-14T06:34:41.387Z,60
2023-04-14T06:36:25.057Z,59.9
2023-04-14T06:38:08.728Z,59.9
2023-04-14T06:39:52.434Z,59.9
2023-04-14T06:41:36.181Z,59.8
2023-04-14T06:43:19.853Z,59.8
2023-04-14T06:45:03.608Z,59.8
2023-04-14T06:46:47.250Z,59.9
2023-04-14T06:48:30.995Z,59.8
2023-04-14T06:50:14.670Z,59.8
2023-04-14T06:51:58.418Z,59.9
2023-04-14T06:53:42.067Z,59.9
2023-04-14T06:55:25.771Z,59.8
2023-04-14T06:57:09.502Z,59.5
2023-04-14T06:58:53.173Z,59.8
2023-04-14T07:00:36.869Z,59.9
2023-04-14T07:02:20.280Z,60
2023-04-14T07:04:04.055Z,59.9
2023-04-14T07:05:47.747Z,59.7
2023-04-14T07:07:31.452Z,59.6
2023-04-14T07:09:15.240Z,59.5
2023-04-14T07:10:58.815Z,59.5
2023-04-14T07:12:42.520Z,59.6
2023-04-14T07:14:26.239Z,59.8
2023-04-14T07:16:09.963Z,60
2023-04-14T07:17:53.608Z,60
2023-04-14T07:19:37.469Z,60
2023-04-14T07:21:21.048Z,59.8
2023-04-14T07:23:04.714Z,59.7
2023-04-14T07:24:48.627Z,59.5
2023-04-14T07:26:32.177Z,59.6
2023-04-14T07:28:16.003Z,59.6
2023-04-14T07:29:59.583Z,59.6
2023-04-14T07:31:43.329Z,59.6
2023-04-14T07:33:27.016Z,59.6
2023-04-14T07:35:10.622Z,59.7
2023-04-14T07:36:54.338Z,59.7
2023-04-14T07:38:38.215Z,59.7
2023-04-14T07:40:21.738Z,59.7
2023-04-14T07:42:05.437Z,59.7
2023-04-14T07:43:49.282Z,59.7
2023-04-14T07:45:33.130Z,59.7
2023-04-14T07:47:16.931Z,59.8
2023-04-14T07:49:00.250Z,59.8
2023-04-14T07:50:43.956Z,59.8
2023-04-14T07:52:27.661Z,59.8
2023-04-14T07:54:11.373Z,59.8
2023-04-14T07:55:55.157Z,59.9
2023-04-14T07:57:38.828Z,59.8
2023-04-14T07:59:22.556Z,59.8
2023-04-14T08:01:06.218Z,59.9
2023-04-14T08:02:49.902Z,60
2023-04-14T08:04:33.577Z,60
2023-04-14T08:06:17.340Z,59.9
2023-04-14T08:08:00.990Z,59.9
2023-04-14T08:09:44.684Z,59.8
2023-04-14T08:11:28.389Z,59.8
2023-04-14T08:13:12.143Z,59.9
2023-04-14T08:14:55.844Z,59.9
2023-04-14T08:16:39.493Z,59.8
2023-04-14T08:18:23.190Z,59.8
2023-04-14T08:20:06.901Z,59.8
2023-04-14T08:21:50.729Z,59.8
2023-04-14T08:23:34.383Z,59.8
2023-04-14T08:25:18.025Z,59.8
2023-04-14T08:27:01.699Z,59.8
2023-04-14T08:28:45.405Z,59.9
2023-04-14T08:30:29.222Z,59.8
2023-04-14T08:32:12.927Z,59.8
2023-04-14T08:33:56.624Z,59.9
2023-04-14T08:35:40.222Z,59.8
2023-04-14T08:37:23.976Z,59.9
2023-04-14T08:39:07.813Z,59.9
2023-04-14T08:40:51.313Z,59.9
2023-04-14T08:42:35.091Z,60
2023-04-14T08:44:18.734Z,60.1
2023-04-14T08:46:02.545Z,60.2
2023-04-14T08:47:46.149Z,60.2
2023-04-14T08:49:29.880Z,60.1
2023-04-14T08:51:13.696Z,59.7
2023-04-14T08:52:57.268Z,59.5
2023-04-14T08:54:41.005Z,59.3
2023-04-14T08:56:24.670Z,59.2
2023-04-14T08:58:08.356Z,59.1
2023-04-14T08:59:52.252Z,59
2023-04-14T09:01:35.765Z,58.8
2023-04-14T09:03:19.463Z,58.7
2023-04-14T09:05:03.266Z,59.1
2023-04-14T09:06:46.859Z,59.3
2023-04-14T09:08:30.557Z,59.3
2023-04-14T09:10:14.387Z,59.2
2023-04-14T09:11:57.966Z,59.2
2023-04-14T09:13:41.699Z,59.3
2023-04-14T09:15:25.531Z,59.6
2023-04-14T09:17:09.080Z,59.7
2023-04-14T09:18:52.833Z,59.7
2023-04-14T09:20:36.511Z,59.7
2023-04-14T09:22:20.216Z,59.7
2023-04-14T09:24:04.053Z,59.7
2023-04-14T09:25:47.588Z,59.8
2023-04-14T09:27:31.344Z,59.7
2023-04-14T09:29:15.002Z,59.6
2023-04-14T09:30:58.796Z,59.5
2023-04-14T09:32:42.468Z,59.5
2023-04-14T09:34:26.098Z,59.4
2023-04-14T09:36:09.982Z,59.3
2023-04-14T09:37:53.660Z,59.2
2023-04-14T09:39:37.376Z,59.2
2023-04-14T09:41:21.024Z,59
2023-04-14T09:43:04.826Z,59
2023-04-14T09:44:48.498Z,59
2023-04-14T09:46:32.174Z,59
2023-04-14T09:48:15.919Z,59
2023-04-14T09:49:59.608Z,59
2023-04-14T09:51:43.147Z,59
2023-04-14T09:53:26.832Z,58.7
2023-04-14T09:55:10.681Z,58.9
2023-04-14T09:56:54.346Z,59.4
2023-04-14T09:58:38.050Z,59.1
2023-04-14T10:00:21.655Z,59
2023-04-14T10:02:05.512Z,58.8
2023-04-14T10:03:49.178Z,58.7
2023-04-14T10:05:32.835Z,58.5
2023-04-14T10:07:16.620Z,58.4
2023-04-14T10:09:00.154Z,58.4
2023-04-14T10:10:43.841Z,58.4
2023-04-14T10:12:27.558Z,58.7
2023-04-14T10:14:11.262Z,58.8
2023-04-14T10:15:54.960Z,58.9
2023-04-14T10:17:38.672Z,58.9
2023-04-14T10:19:22.364Z,58.9
2023-04-14T10:21:06.068Z,59.1
2023-04-14T10:22:49.774Z,59
2023-04-14T10:24:33.473Z,59.1
2023-04-14T10:26:17.174Z,59
2023-04-14T10:28:00.876Z,58.9
2023-04-14T10:29:44.587Z,58.9
2023-04-14T10:31:28.285Z,58.8
2023-04-14T10:33:11.982Z,58.7
2023-04-14T10:34:55.675Z,58.6
2023-04-14T10:36:39.395Z,58.5
2023-04-14T10:38:23.088Z,58.5
2023-04-14T10:40:06.796Z,58.5
2023-04-14T10:41:50.498Z,58.4
2023-04-14T10:43:34.199Z,58.4
2023-04-14T10:45:17.905Z,58.3
2023-04-14T10:47:01.594Z,58.3
2023-04-14T10:48:45.295Z,58.3
2023-04-14T10:50:29.012Z,58.4
2023-04-14T10:52:12.709Z,58.4
2023-04-14T10:53:56.494Z,58.3
2023-04-14T10:55:40.128Z,58.2
2023-04-14T10:57:23.936Z,58.2
2023-04-14T10:59:07.524Z,58.2
2023-04-14T11:00:51.223Z,58.2
2023-04-14T11:02:34.933Z,58.3
2023-04-14T11:04:18.627Z,58.4
2023-04-14T11:06:02.339Z,58.5
2023-04-14T11:07:46.045Z,58.5
2023-04-14T11:09:29.744Z,58.6
2023-04-14T11:11:13.430Z,58.5
2023-04-14T11:12:57.141Z,58.4
2023-04-14T11:14:40.846Z,58.4
2023-04-14T11:16:24.552Z,58.4
2023-04-14T11:18:08.263Z,58.4
2023-04-14T11:19:51.953Z,58.4
2023-04-14T11:21:35.658Z,58.2
2023-04-14T11:23:19.371Z,58.3
2023-04-14T11:25:03.158Z,58.5
2023-04-14T11:26:46.769Z,58.3
2023-04-14T11:28:30.548Z,58.3
2023-04-14T11:30:14.204Z,58.3
2023-04-14T11:31:57.867Z,58.4
2023-04-14T11:33:41.572Z,58.3
2023-04-14T11:35:25.285Z,58.3
2023-04-14T11:37:08.990Z,58.3
2023-04-14T11:38:52.696Z,58.3
2023-04-14T11:40:36.376Z,58.2
2023-04-14T11:42:20.142Z,58.3
2023-04-14T11:44:03.778Z,58.3
2023-04-14T11:45:47.494Z,58.2
2023-04-14T11:47:31.181Z,58.2
2023-04-14T11:49:14.901Z,58.2
2023-04-14T11:50:58.601Z,58.1
2023-04-14T11:56:09.787Z,58.1
2023-04-14T11:57:53.633Z,58.1
2023-04-14T11:59:37.158Z,58
2023-04-14T12:01:20.915Z,57.9
2023-04-14T12:03:04.569Z,57.8
2023-04-14T12:04:48.363Z,57.8
2023-04-14T12:06:32.092Z,57.8
2023-04-14T12:08:15.776Z,57.7
2023-04-14T12:09:59.597Z,57.7
2023-04-14T12:13:26.899Z,57.6
2023-04-14T12:15:10.602Z,57.8
2023-04-14T12:16:54.379Z,57.9
2023-04-14T12:18:37.837Z,57.9
2023-04-14T12:20:21.632Z,57.9
2023-04-14T12:22:05.408Z,57.8
2023-04-14T12:23:48.940Z,57.9
2023-04-14T12:25:32.676Z,57.8
2023-04-14T12:27:16.527Z,57.8
2023-04-14T12:29:00.065Z,57.6
2023-04-14T12:30:43.905Z,57.5
2023-04-14T12:32:27.490Z,57.5
2023-04-14T12:34:11.349Z,57.5
2023-04-14T12:35:55.062Z,57.5
2023-04-14T12:37:38.571Z,57.5
2023-04-14T12:39:22.408Z,57.5
2023-04-14T12:41:06.229Z,57.5
2023-04-14T12:42:49.920Z,57.5
2023-04-14T12:44:33.372Z,57.5
2023-04-14T12:46:17.086Z,57.5
2023-04-14T12:48:00.991Z,57.4
2023-04-14T12:49:44.630Z,57.4
2023-04-14T12:51:28.178Z,57.3
2023-04-14T12:53:12.119Z,57.3
2023-04-14T12:54:55.676Z,57.4
2023-04-14T12:56:39.447Z,57.4
2023-04-14T12:58:22.990Z,57.4
2023-04-14T13:00:06.790Z,57.3
2023-04-14T13:01:50.559Z,57.3
2023-04-14T13:03:34.320Z,57.3
2023-04-14T13:05:17.986Z,57.3
2023-04-14T13:07:01.646Z,57.2
2023-04-14T13:08:45.376Z,57.1
2023-04-14T13:10:29.116Z,57.2
2023-04-14T13:12:12.754Z,57.3
2023-04-14T13:13:56.441Z,57.1
2023-04-14T13:15:40.186Z,57
2023-04-14T13:17:23.874Z,57
2023-04-14T13:19:07.584Z,56.9
2023-04-14T13:20:51.254Z,57
2023-04-14T13:22:35.076Z,57.1
2023-04-14T13:24:18.703Z,57.1
2023-04-14T13:26:02.453Z,57.1
2023-04-14T13:27:46.115Z,57
2023-04-14T13:29:29.641Z,57
2023-04-14T13:31:13.491Z,57.1
2023-04-14T13:32:57.247Z,57.3
2023-04-14T13:34:40.916Z,57.3
2023-04-14T13:36:24.454Z,57.2
2023-04-14T13:38:08.326Z,57.4
2023-04-14T13:39:51.868Z,57.4
2023-04-14T13:41:35.705Z,57.2
2023-04-14T13:43:19.422Z,57.1
2023-04-14T13:45:02.984Z,57
2023-04-14T13:46:46.801Z,57
2023-04-14T13:48:30.540Z,57
2023-04-14T13:50:14.144Z,57
2023-04-14T13:51:57.963Z,57
2023-04-14T13:53:41.649Z,57
2023-04-14T13:55:25.363Z,56.8
2023-04-14T13:57:09.112Z,56.8
2023-04-14T13:58:52.582Z,56.9
2023-04-14T14:00:36.546Z,56.9
2023-04-14T14:02:20.161Z,56.9
2023-04-14T14:04:03.701Z,57
2023-04-14T14:05:47.403Z,57
2023-04-14T14:07:31.272Z,56.9
2023-04-14T14:09:14.993Z,56.9
2023-04-14T14:10:58.699Z,56.9
2023-04-14T14:12:42.374Z,57
2023-04-14T14:14:26.081Z,57.2
2023-04-14T14:16:09.855Z,57.2
2023-04-14T14:17:53.496Z,57.1
2023-04-14T14:19:37.146Z,56.9
2023-04-14T14:21:20.928Z,56.8
2023-04-14T14:23:04.597Z,56.8
2023-04-14T14:24:48.304Z,56.7
2023-04-14T14:26:31.825Z,56.5
2023-04-14T14:28:15.707Z,56.5
2023-04-14T14:29:59.379Z,56.5
2023-04-14T14:31:42.923Z,56.5
2023-04-14T14:33:26.813Z,56.5
2023-04-14T14:35:10.534Z,56.6
2023-04-14T14:36:54.170Z,56.6
2023-04-14T14:38:37.965Z,56.6
2023-04-14T14:40:21.657Z,57
2023-04-14T14:42:05.147Z,57.2
2023-04-14T14:43:49.027Z,57.3
2023-04-14T14:45:32.754Z,57.4
2023-04-14T14:47:16.387Z,57.5
2023-04-14T14:49:00.122Z,57.6
2023-04-14T14:50:43.886Z,57.7
2023-04-14T14:52:29.273Z,57.7
2023-04-14T14:54:11.008Z,57.8
2023-04-14T14:55:54.901Z,57.9
2023-04-14T14:57:38.603Z,58
2023-04-14T14:59:22.307Z,58
2023-04-14T15:01:05.976Z,58.1
2023-04-14T15:02:49.632Z,58.1
2023-04-14T15:04:33.233Z,58.2
2023-04-14T15:06:16.937Z,58.4
2023-04-14T15:08:00.857Z,58.5
2023-04-14T15:09:44.520Z,58.5
2023-04-14T15:11:28.233Z,58.2
2023-04-14T15:13:11.768Z,58.1
2023-04-14T15:14:55.643Z,58.3
2023-04-14T15:16:39.401Z,58.1
2023-04-14T15:18:23.130Z,58
2023-04-14T15:20:06.712Z,58
2023-04-14T15:23:34.149Z,57.9
2023-04-14T15:25:17.996Z,57.9
2023-04-14T15:27:01.604Z,57.8
2023-04-14T15:28:45.335Z,57.8
2023-04-14T15:30:29.079Z,57.8
2023-04-14T15:32:12.680Z,57.8
2023-04-14T15:33:56.375Z,57.7
2023-04-14T15:35:40.060Z,58
2023-04-14T15:37:23.853Z,58.4
2023-04-14T15:39:07.549Z,58.3
2023-04-14T15:40:51.215Z,58.6
2023-04-14T15:42:34.957Z,58.8
2023-04-14T15:44:18.645Z,58.8
2023-04-14T15:46:02.304Z,59
2023-04-14T15:47:46.044Z,59.2
2023-04-14T15:49:29.768Z,59
2023-04-14T15:51:13.417Z,59.1
2023-04-14T15:52:57.128Z,59.2
2023-04-14T15:54:40.700Z,59.3
2023-04-14T15:56:24.600Z,59.4
2023-04-14T15:58:08.247Z,59.5
2023-04-14T15:59:51.950Z,59.5
2023-04-14T16:01:35.647Z,59.5
2023-04-14T16:03:19.357Z,59.4
2023-04-14T16:05:03.144Z,59.4
2023-04-14T16:06:46.681Z,59.4
2023-04-14T16:08:30.369Z,59.5
2023-04-14T16:10:14.161Z,59.5
2023-04-14T16:11:57.875Z,59.5
2023-04-14T16:13:41.550Z,59.4
2023-04-14T16:15:25.102Z,59.5
2023-04-14T16:17:08.993Z,59.5
2023-04-14T16:18:52.498Z,59.4
2023-04-14T16:20:36.387Z,59.5
2023-04-14T16:22:20.065Z,59.3
2023-04-14T16:24:03.627Z,52.7
2023-04-14T16:25:47.491Z,59.6
2023-04-14T16:27:31.184Z,50.9
2023-04-14T16:29:14.910Z,43.4
2023-04-14T16:30:58.428Z,41.2
2023-04-14T16:32:42.314Z,40
2023-04-14T16:34:25.841Z,39.1
2023-04-14T16:36:09.748Z,43.8
2023-04-14T16:37:53.418Z,51.9
2023-04-14T16:39:37.106Z,51.2
2023-04-14T16:41:20.831Z,52.1
2023-04-14T16:43:04.520Z,53.3
2023-04-14T16:44:48.186Z,53.7
2023-04-14T16:46:31.920Z,53.6
2023-04-14T16:48:15.617Z,53.7
2023-04-14T16:49:59.173Z,53.7
2023-04-14T16:51:42.967Z,53.5
2023-04-14T16:53:26.728Z,52.9
2023-04-14T16:55:10.432Z,53.2
2023-04-14T16:56:54.140Z,53.6
2023-04-14T16:58:37.829Z,53.7
2023-04-14T17:00:21.547Z,53.9
2023-04-14T17:02:05.213Z,54
2023-04-14T17:03:48.907Z,54.1
2023-04-14T17:05:32.655Z,54.3
2023-04-14T17:07:16.370Z,54.3
2023-04-14T17:08:59.997Z,54.4
2023-04-14T17:10:43.734Z,54.6
2023-04-14T17:12:27.264Z,54.8
2023-04-14T17:14:11.090Z,54.9
2023-04-14T17:15:54.823Z,55
2023-04-14T17:17:38.519Z,55
2023-04-14T17:19:22.240Z,55.2
2023-04-14T17:21:05.991Z,55.3
2023-04-14T17:22:49.618Z,55.4
2023-04-14T17:24:33.325Z,55.4
2023-04-14T17:26:17.039Z,55.5
2023-04-14T17:28:00.833Z,55.6
2023-04-14T17:29:44.466Z,55.8
2023-04-14T17:31:28.170Z,55.9
2023-04-14T17:33:11.800Z,56.1
2023-04-14T17:34:55.558Z,56.2
2023-04-14T17:36:39.312Z,56.3
2023-04-14T17:38:22.969Z,56.4
2023-04-14T17:40:06.666Z,56.4
2023-04-14T17:41:50.353Z,56.4
2023-04-14T17:43:33.991Z,56.5
2023-04-14T17:45:17.796Z,56.5
2023-04-14T17:47:01.540Z,56.5
2023-04-14T17:48:45.131Z,56.5
2023-04-14T17:50:28.854Z,56.5
2023-04-14T17:52:12.572Z,56.5
2023-04-14T17:53:56.264Z,56.5
2023-04-14T17:55:39.998Z,56.5
2023-04-14T17:57:23.630Z,56.5
2023-04-14T17:59:07.313Z,56.5
2023-04-14T18:00:51.153Z,56.6
2023-04-14T18:02:34.717Z,56.6
2023-04-14T18:04:18.355Z,56.6
2023-04-14T18:06:02.048Z,56.6
2023-04-14T18:07:45.770Z,56.6
2023-04-14T18:09:29.698Z,56.7
2023-04-14T18:11:13.354Z,56.7
2023-04-14T18:12:56.987Z,56.7
2023-04-14T18:14:40.556Z,56.6
2023-04-14T18:16:24.269Z,56.3
2023-04-14T18:18:08.004Z,56.4
2023-04-14T18:19:51.835Z,56.3
2023-04-14T18:23:19.077Z,56.4
2023-04-14T18:25:02.871Z,56.5
2023-04-14T18:26:46.510Z,56.6
2023-04-14T18:28:30.262Z,56.7
2023-04-14T18:30:13.987Z,56.8
2023-04-14T18:31:57.597Z,56.8
2023-04-14T18:33:41.408Z,56.8
2023-04-14T18:35:25.036Z,56.6
2023-04-14T18:37:08.758Z,56.5
2023-04-14T18:38:52.508Z,56.4
2023-04-14T18:40:36.174Z,56.4
2023-04-14T18:42:19.904Z,56.4
2023-04-14T18:44:03.594Z,56.2
2023-04-14T18:45:47.217Z,56.2
2023-04-14T18:47:30.985Z,56.2
2023-04-14T18:49:14.620Z,56.1
2023-04-14T18:50:58.334Z,56.2
2023-04-14T18:52:42.020Z,56.6
2023-04-14T18:54:25.838Z,56.5
2023-04-14T18:56:09.610Z,56.5
2023-04-14T18:57:53.135Z,56.7
2023-04-14T18:59:36.899Z,56.3
2023-04-14T19:01:20.537Z,56.7
2023-04-14T19:03:04.236Z,56.4
2023-04-14T19:04:47.932Z,56.5
2023-04-14T19:06:31.647Z,57
2023-04-14T19:08:15.371Z,57.8
2023-04-14T19:09:59.097Z,57.7
2023-04-14T19:11:42.760Z,57.8
2023-04-14T19:13:26.470Z,58.1
2023-04-14T19:15:10.349Z,58.3
2023-04-14T19:16:53.865Z,58.3
2023-04-14T19:18:37.552Z,58.3
2023-04-14T19:20:21.344Z,59.5
2023-04-14T19:22:05.044Z,60.6
2023-04-14T19:23:48.665Z,60.4
2023-04-14T19:25:32.423Z,60.1
2023-04-14T19:27:16.078Z,59.8
2023-04-14T19:28:59.794Z,59.7
2023-04-14T19:30:43.494Z,59.6
2023-04-14T19:32:27.186Z,59.5
2023-04-14T19:34:11.042Z,59.6
2023-04-14T19:35:54.594Z,59.7
2023-04-14T19:37:38.459Z,59.7
2023-04-14T19:39:22.063Z,59.8
2023-04-14T19:41:05.702Z,59.9
2023-04-14T19:42:49.394Z,60
2023-04-14T19:44:33.102Z,60.3
2023-04-14T19:46:16.889Z,61.2
2023-04-14T19:48:00.502Z,62.3
2023-04-14T19:49:44.283Z,62.6
2023-04-14T19:51:27.964Z,62.7
2023-04-14T19:53:11.615Z,56.8
2023-04-14T19:54:55.858Z,44
2023-04-14T19:56:39.017Z,39.2
2023-04-14T19:58:22.779Z,47.5
2023-04-14T20:00:06.437Z,57.7
2023-04-14T20:01:50.126Z,54.1
2023-04-14T20:03:33.892Z,53.3
2023-04-14T20:05:17.617Z,53.3
2023-04-14T20:07:01.232Z,53.2
2023-04-14T20:08:44.945Z,54.4
2023-04-14T20:10:28.694Z,55.4
2023-04-14T20:12:12.438Z,56.1
2023-04-14T20:13:56.061Z,55.6
2023-04-14T20:15:39.785Z,56.1
2023-04-14T20:17:23.505Z,58.2
2023-04-14T20:19:07.302Z,60.1
2023-04-14T20:20:50.911Z,62
2023-04-14T20:22:34.615Z,63
2023-04-14T20:24:18.284Z,64.2
2023-04-14T20:26:02.024Z,64.3
2023-04-14T20:27:45.663Z,64
2023-04-14T20:29:29.536Z,63.7
2023-04-14T20:31:13.089Z,64
2023-04-14T20:32:56.811Z,63.7
2023-04-14T20:34:40.495Z,63.2
2023-04-14T20:36:24.218Z,62.9
2023-04-14T20:38:07.956Z,62.6
2023-04-14T20:39:51.628Z,62.4
2023-04-14T20:41:35.320Z,61.6
2023-04-14T20:43:18.995Z,60.3
2023-04-14T20:45:02.686Z,60.3
2023-04-14T20:46:46.388Z,60.3
2023-04-14T20:48:30.093Z,59.9
2023-04-14T20:50:13.831Z,59.7
2023-04-14T20:51:57.598Z,59.5
2023-04-14T20:53:41.304Z,59.3
2023-04-14T20:55:24.915Z,59.7
2023-04-14T20:57:08.613Z,59.6
2023-04-14T20:58:52.440Z,60.2
2023-04-14T21:00:36.084Z,60.8
2023-04-14T21:02:19.736Z,60.7
2023-04-14T21:04:03.443Z,60.2
2023-04-14T21:05:47.177Z,55.7
2023-04-14T21:07:30.814Z,46.6
2023-04-14T21:09:14.527Z,42.8
2023-04-14T21:10:58.215Z,46.8
2023-04-14T21:12:41.995Z,59.2
2023-04-14T21:14:25.630Z,58.8
2023-04-14T21:16:09.336Z,58.1
2023-04-14T21:17:53.036Z,57.9
2023-04-14T21:19:36.867Z,57.4
2023-04-14T21:21:20.503Z,56.3
2023-04-14T21:23:04.243Z,56.4
2023-04-14T21:24:47.844Z,56.4
2023-04-14T21:26:31.591Z,56.2
2023-04-14T21:28:15.253Z,56.2
2023-04-14T21:29:58.960Z,56.4
2023-04-14T21:31:42.648Z,56.5
2023-04-14T21:33:26.445Z,56.6
2023-04-14T21:35:10.065Z,57.1
2023-04-14T21:36:53.786Z,59.3
2023-04-14T21:38:37.496Z,60.2
2023-04-14T21:40:21.228Z,60
2023-04-14T21:42:04.879Z,59.8
2023-04-14T21:43:48.571Z,59.6
2023-04-14T21:45:32.278Z,59.5
2023-04-14T21:47:15.986Z,59.5
2023-04-14T21:48:59.686Z,59.3
2023-04-14T21:50:43.453Z,59.2
2023-04-14T21:52:27.086Z,59.1
2023-04-14T21:54:10.812Z,59
2023-04-14T21:55:54.495Z,58.9
2023-04-14T21:57:38.190Z,58.6
2023-04-14T21:59:21.917Z,58.6
2023-04-14T22:01:05.692Z,58.5
2023-04-14T22:02:49.319Z,58.6
2023-04-14T22:04:33.006Z,58.4
2023-04-14T22:06:16.706Z,58.1
2023-04-14T22:08:00.416Z,58.1
2023-04-14T22:09:44.112Z,58.7
2023-04-14T22:11:27.810Z,59.1
2023-04-14T22:13:11.518Z,59.1
2023-04-14T22:14:55.226Z,59
2023-04-14T22:16:38.921Z,59
2023-04-14T22:18:22.638Z,58.8
2023-04-14T22:20:06.336Z,58.7
2023-04-14T22:21:50.047Z,58.7
2023-04-14T22:23:33.756Z,58.9
2023-04-14T22:25:17.431Z,59
2023-04-14T22:27:01.160Z,59
2023-04-14T22:28:44.858Z,59.1
2023-04-14T22:30:28.587Z,59.2
2023-04-14T22:32:12.262Z,59.3
2023-04-14T22:33:55.961Z,59.3
2023-04-14T22:35:39.658Z,59.4
2023-04-14T22:37:23.368Z,59.3
2023-04-14T22:39:07.101Z,59.2
2023-04-14T22:40:50.762Z,59.1
2023-04-14T22:42:34.482Z,59.4
2023-04-14T22:44:18.298Z,59.5
2023-04-14T22:46:02.040Z,59.3
2023-04-14T22:47:45.576Z,59.4
2023-04-14T22:49:29.376Z,59.5
2023-04-14T22:51:13.001Z,59.5
2023-04-14T22:52:56.672Z,59.6
2023-04-14T22:54:40.377Z,59.7
2023-04-14T22:56:24.085Z,59.7
2023-04-14T22:58:07.794Z,59.7
2023-04-14T22:59:51.484Z,59.8
2023-04-14T23:01:35.180Z,59.9
2023-04-14T23:03:18.904Z,59.9
2023-04-14T23:05:02.599Z,59.9
2023-04-14T23:06:46.296Z,59.9
2023-04-14T23:08:30.065Z,59.5
2023-04-14T23:10:13.732Z,59.4
2023-04-14T23:11:57.396Z,59.4
2023-04-14T23:13:41.098Z,59.2
2023-04-14T23:15:24.820Z,59.4
2023-04-14T23:17:08.504Z,59.8
2023-04-14T23:18:52.204Z,59.7
2023-04-14T23:20:35.905Z,59.6
2023-04-14T23:22:19.625Z,59.5